createdAt,value
2023-02-23T00:02:09.878Z,19131.03
2023-02-23T00:04:38.375Z,19165.56
2023-02-23T00:07:07.287Z,19165.56
2023-02-23T00:09:36.153Z,19171.66
2023-02-23T00:12:08.601Z,19175.72
2023-02-23T00:14:38.871Z,19149.31
2023-02-23T00:17:14.552Z,19106.66
2023-02-23T00:19:44.234Z,19131.03
2023-02-23T00:22:12.838Z,19122.91
2023-02-23T00:24:43.274Z,19139.16
2023-02-23T00:27:17.418Z,19131.03
2023-02-23T00:29:49.191Z,19151.34
2023-02-23T00:32:20.647Z,19139.16
2023-02-23T00:34:50.427Z,19141.19
2023-02-23T00:37:19.653Z,19135.09
2023-02-23T00:39:47.773Z,19126.97
2023-02-23T00:42:15.963Z,19090.38
2023-02-23T00:44:44.160Z,19096.47
2023-02-23T00:47:12.298Z,19116.81
2023-02-23T00:49:44.863Z,19118.84
2023-02-23T00:52:14.662Z,19135.09
2023-02-23T00:54:43.275Z,19080.22
2023-02-23T00:57:11.407Z,19108.69
2023-02-23T00:59:39.669Z,19084.28
2023-02-23T01:02:07.808Z,19078.19
2023-02-23T01:04:35.956Z,19088.34
2023-02-23T01:07:07.559Z,19092.41
2023-02-23T01:09:35.666Z,19074.13
2023-02-23T01:12:07.538Z,19080.22
2023-02-23T01:14:37.919Z,19070.06
2023-02-23T01:17:07.408Z,19088.34
2023-02-23T01:19:35.831Z,19100.53
2023-02-23T01:22:05.699Z,19070.06
2023-02-23T01:24:33.910Z,19076.16
2023-02-23T01:27:02.076Z,19074.13
2023-02-23T01:29:30.349Z,19057.88
2023-02-23T01:31:58.577Z,19090.38
2023-02-23T01:34:26.943Z,19068.03
2023-02-23T01:36:55.073Z,19074.13
2023-02-23T01:39:24.607Z,19078.19
2023-02-23T01:41:54.171Z,19029.44
2023-02-23T01:45:23.733Z,19068.03
2023-02-23T01:47:56.748Z,19090.38
2023-02-23T01:50:28.473Z,19066.00
2023-02-23T01:52:59.314Z,19043.66
2023-02-23T01:55:30.008Z,19070.06
2023-02-23T01:58:08.018Z,19094.44
2023-02-23T02:00:37.617Z,19068.03
2023-02-23T02:03:13.995Z,19047.72
2023-02-23T02:05:43.219Z,19100.53
2023-02-23T02:08:13.518Z,19043.66
2023-02-23T02:10:46.617Z,19070.06
2023-02-23T02:13:22.168Z,19066.00
2023-02-23T02:16:31.222Z,19041.63
2023-02-23T02:19:54.151Z,19043.66
2023-02-23T02:22:48.158Z,19037.56
2023-02-23T02:25:41.440Z,19021.31
2023-02-23T02:28:43.293Z,19015.19
2023-02-23T02:32:11.062Z,19045.69
2023-02-23T02:35:38.057Z,19070.06
2023-02-23T02:38:26.972Z,19031.47
2023-02-23T02:41:06.830Z,19059.91
2023-02-23T02:43:50.931Z,19017.25
2023-02-23T02:46:26.234Z,19045.69
2023-02-23T02:49:06.628Z,19047.72
2023-02-23T02:51:43.418Z,19025.38
2023-02-23T02:54:25.485Z,19000.97
2023-02-23T02:57:00.557Z,19063.97
2023-02-23T02:59:47.020Z,19078.19
2023-02-23T03:02:37.788Z,19041.63
2023-02-23T03:05:33.183Z,19066.00
2023-02-23T03:08:32.010Z,19029.44
2023-02-23T03:11:25.459Z,19037.56
2023-02-23T03:14:28.809Z,19059.91
2023-02-23T03:17:28.575Z,19051.78
2023-02-23T03:20:22.782Z,19041.63
2023-02-23T03:23:27.614Z,19057.88
2023-02-23T03:26:25.630Z,19068.03
2023-02-23T03:29:21.333Z,19082.25
2023-02-23T03:32:14.971Z,19086.31
2023-02-23T03:35:09.843Z,19074.13
2023-02-23T03:38:04.620Z,19131.03
2023-02-23T03:40:56.006Z,19059.91
2023-02-23T03:43:51.160Z,19118.84
2023-02-23T03:46:39.053Z,19102.56
2023-02-23T03:49:29.826Z,19106.66
2023-02-23T03:52:24.964Z,19108.69
2023-02-23T03:55:17.982Z,19126.97
2023-02-23T03:58:09.303Z,19149.31
2023-02-23T04:01:04.945Z,19153.38
2023-02-23T04:03:55.243Z,19120.88
2023-02-23T04:06:47.585Z,19108.69
2023-02-23T04:09:33.722Z,19143.22
2023-02-23T04:12:28.016Z,19141.19
2023-02-23T04:15:01.514Z,19153.38
2023-02-23T04:17:36.602Z,19143.22
2023-02-23T04:20:07.005Z,19145.25
2023-02-23T04:22:35.873Z,19131.03
2023-02-23T04:25:05.972Z,19110.72
2023-02-23T04:27:34.153Z,19171.66
2023-02-23T04:30:03.791Z,19126.97
2023-02-23T04:32:34.091Z,19147.28
2023-02-23T04:35:02.320Z,19181.81
2023-02-23T04:37:30.489Z,19153.38
2023-02-23T04:39:58.594Z,19171.66
2023-02-23T04:42:26.745Z,19143.22
2023-02-23T04:44:54.869Z,19159.47
2023-02-23T04:47:23.512Z,19169.63
2023-02-23T04:49:53.879Z,19175.72
2023-02-23T04:52:22.025Z,19181.81
2023-02-23T04:54:50.186Z,19187.91
2023-02-23T04:57:18.403Z,19171.66
2023-02-23T04:59:46.515Z,19137.13
2023-02-23T05:02:14.785Z,19159.47
2023-02-23T05:04:42.951Z,19157.44
2023-02-23T05:07:12.608Z,19171.66
2023-02-23T05:09:41.370Z,19179.78
2023-02-23T05:12:09.870Z,19181.81
2023-02-23T05:14:38.698Z,19212.31
2023-02-23T05:17:08.595Z,19163.53
2023-02-23T05:19:37.703Z,19167.59
2023-02-23T05:22:06.417Z,19139.16
2023-02-23T05:24:36.662Z,19194.03
2023-02-23T05:27:04.927Z,19159.47
2023-02-23T05:29:33.024Z,19151.34
2023-02-23T05:32:01.307Z,19139.16
2023-02-23T05:34:29.834Z,19131.03
2023-02-23T05:36:57.952Z,19094.44
2023-02-23T05:39:26.070Z,19122.91
2023-02-23T05:41:55.535Z,19090.38
2023-02-23T05:44:23.711Z,19108.69
2023-02-23T05:46:51.791Z,19068.03
2023-02-23T05:49:20.015Z,19102.56
2023-02-23T05:51:48.293Z,19126.97
2023-02-23T05:54:16.569Z,19104.59
2023-02-23T05:56:44.887Z,19110.72
2023-02-23T05:59:14.403Z,19098.50
2023-02-23T06:01:42.560Z,19082.25
2023-02-23T06:04:10.748Z,19084.28
2023-02-23T06:06:38.947Z,19114.78
2023-02-23T06:09:07.248Z,19118.84
2023-02-23T06:11:35.440Z,19110.72
2023-02-23T06:14:03.612Z,19053.81
2023-02-23T06:16:33.202Z,19118.84
2023-02-23T06:19:01.375Z,19098.50
2023-02-23T06:21:29.472Z,19084.28
2023-02-23T06:24:00.708Z,19080.22
2023-02-23T06:26:29.618Z,19147.28
2023-02-23T06:28:57.747Z,19098.50
2023-02-23T06:31:25.934Z,19104.59
2023-02-23T06:33:55.397Z,19094.44
2023-02-23T06:36:23.568Z,19094.44
2023-02-23T06:38:51.650Z,19082.25
2023-02-23T06:41:20.120Z,19114.78
2023-02-23T06:43:48.406Z,19110.72
2023-02-23T06:46:16.540Z,19102.56
2023-02-23T06:48:44.744Z,19137.13
2023-02-23T06:51:14.216Z,19122.91
2023-02-23T06:53:42.343Z,19169.63
2023-02-23T06:56:12.435Z,19124.94
2023-02-23T06:58:40.670Z,19145.25
2023-02-23T07:01:09.902Z,19082.25
2023-02-23T07:03:38.014Z,19118.84
2023-02-23T07:06:06.831Z,19153.38
2023-02-23T07:08:36.884Z,19118.84
2023-02-23T07:11:09.823Z,19122.91
2023-02-23T07:13:38.268Z,19122.91
2023-02-23T07:16:07.729Z,19165.56
2023-02-23T07:18:36.190Z,19187.91
2023-02-23T07:21:04.381Z,19200.13
2023-02-23T07:23:33.086Z,19181.81
2023-02-23T07:26:02.573Z,19163.53
2023-02-23T07:28:30.698Z,19177.75
2023-02-23T07:30:59.729Z,19173.69
2023-02-23T07:33:27.920Z,19179.78
2023-02-23T07:35:56.027Z,19179.78
2023-02-23T07:38:24.202Z,19208.25
2023-02-23T07:40:52.416Z,19206.22
2023-02-23T07:43:22.747Z,19238.72
2023-02-23T07:45:51.729Z,19224.50
2023-02-23T07:48:20.266Z,19261.06
2023-02-23T07:50:48.947Z,19248.88
2023-02-23T07:53:17.146Z,19248.88
2023-02-23T07:55:45.658Z,19257.00
2023-02-23T07:58:14.232Z,19297.66
2023-02-23T08:00:44.051Z,19281.41
2023-02-23T08:03:12.457Z,19271.25
2023-02-23T08:05:41.082Z,19289.53
2023-02-23T08:08:09.217Z,19324.06
2023-02-23T08:10:38.081Z,19313.91
2023-02-23T08:13:07.096Z,19326.09
2023-02-23T08:15:35.271Z,19317.97
2023-02-23T08:18:05.187Z,19301.72
2023-02-23T08:20:33.483Z,19344.41
2023-02-23T08:23:01.619Z,19354.56
2023-02-23T08:25:29.761Z,19332.19
2023-02-23T08:27:59.621Z,19358.63
2023-02-23T08:30:28.046Z,19350.50
2023-02-23T08:32:56.212Z,19391.13
2023-02-23T08:35:25.798Z,19372.84
2023-02-23T08:37:54.014Z,19405.34
2023-02-23T08:40:22.140Z,19405.34
2023-02-23T08:42:52.047Z,19431.78
2023-02-23T08:45:21.452Z,19441.94
2023-02-23T08:47:49.586Z,19454.13
2023-02-23T08:50:17.932Z,19480.53
2023-02-23T08:52:47.390Z,19492.75
2023-02-23T08:55:16.663Z,19486.66
2023-02-23T08:57:44.786Z,19478.50
2023-02-23T09:00:16.604Z,19476.47
2023-02-23T09:02:48.055Z,19496.81
2023-02-23T09:05:17.555Z,19523.22
2023-02-23T09:07:49.070Z,19531.34
2023-02-23T09:10:24.005Z,19504.94
2023-02-23T09:12:52.880Z,19551.69
2023-02-23T09:15:22.027Z,19612.63
2023-02-23T09:17:50.215Z,19596.38
2023-02-23T09:20:19.453Z,19594.34
2023-02-23T09:22:49.592Z,19681.75
2023-02-23T09:25:22.452Z,19637.03
2023-02-23T09:27:51.910Z,19639.06
2023-02-23T09:30:22.280Z,19671.56
2023-02-23T09:32:52.201Z,19740.69
2023-02-23T09:35:24.835Z,19781.31
2023-02-23T09:37:57.166Z,19754.91
2023-02-23T09:40:30.037Z,19803.69
2023-02-23T09:43:06.973Z,19763.03
2023-02-23T09:45:41.935Z,19795.53
2023-02-23T09:48:18.897Z,19789.44
2023-02-23T09:50:52.086Z,19789.44
2023-02-23T09:53:34.654Z,19785.38
2023-02-23T09:56:11.632Z,19761.00
2023-02-23T09:58:41.036Z,19773.19
2023-02-23T10:01:50.520Z,19805.72
2023-02-23T10:04:24.942Z,19781.31
2023-02-23T10:07:01.717Z,19769.13
2023-02-23T10:09:52.113Z,19771.16
2023-02-23T10:12:31.333Z,19779.28
2023-02-23T10:15:15.347Z,19779.28
2023-02-23T10:17:56.557Z,19799.63
2023-02-23T10:20:37.198Z,19813.84
2023-02-23T10:23:09.932Z,19805.72
2023-02-23T10:25:46.506Z,19821.97
2023-02-23T10:28:20.190Z,19813.84
2023-02-23T10:30:50.614Z,19817.91
2023-02-23T10:33:28.209Z,19828.06
2023-02-23T10:36:12.817Z,19909.34
2023-02-23T10:38:41.682Z,19870.75
2023-02-23T10:41:14.824Z,19856.53
2023-02-23T10:43:43.570Z,19850.41
2023-02-23T10:46:22.094Z,19854.50
2023-02-23T10:48:53.587Z,19854.50
2023-02-23T10:51:29.532Z,19909.34
2023-02-23T10:54:07.513Z,19870.75
2023-02-23T10:56:47.871Z,19935.78
2023-02-23T10:59:22.028Z,19935.78
2023-02-23T11:02:01.319Z,19947.97
2023-02-23T11:04:34.689Z,19990.66
2023-02-23T11:07:16.678Z,19923.59
2023-02-23T11:09:48.146Z,20008.94
2023-02-23T11:12:25.543Z,20041.47
2023-02-23T11:14:57.600Z,20019.13
2023-02-23T11:17:34.425Z,19960.16
2023-02-23T11:20:08.578Z,19976.44
2023-02-23T11:22:42.031Z,19986.59
2023-02-23T11:25:22.728Z,19976.44
2023-02-23T11:27:53.877Z,19931.72
2023-02-23T11:30:25.213Z,19968.31
2023-02-23T11:32:57.410Z,19974.41
2023-02-23T11:35:33.131Z,19966.28
2023-02-23T11:38:15.189Z,19996.75
2023-02-23T11:40:43.466Z,20021.16
2023-02-23T11:43:16.975Z,20017.09
2023-02-23T11:45:49.759Z,20023.19
2023-02-23T11:48:24.586Z,20017.09
2023-02-23T11:50:55.216Z,20061.78
2023-02-23T11:53:31.827Z,20037.41
2023-02-23T11:56:08.082Z,20065.84
2023-02-23T11:58:42.236Z,20041.47
2023-02-23T12:01:13.615Z,20023.19
2023-02-23T12:03:48.624Z,20017.09
2023-02-23T12:06:30.527Z,20037.41
2023-02-23T12:09:12.975Z,20039.44
2023-02-23T12:11:48.752Z,20053.66
2023-02-23T12:14:31.681Z,20037.41
2023-02-23T12:17:09.769Z,20027.25
2023-02-23T12:19:45.165Z,20037.41
2023-02-23T12:22:19.866Z,20006.91
2023-02-23T12:24:57.762Z,20027.25
2023-02-23T12:27:36.013Z,19986.59
2023-02-23T12:30:18.278Z,20000.81
2023-02-23T12:32:53.778Z,20015.03
2023-02-23T12:35:31.199Z,20017.09
2023-02-23T12:38:09.853Z,20029.28
2023-02-23T12:40:42.249Z,20049.59
2023-02-23T12:43:18.689Z,20029.28
2023-02-23T12:45:55.701Z,20035.38
2023-02-23T12:48:41.131Z,20049.59
2023-02-23T12:51:25.032Z,19968.31
2023-02-23T12:53:53.546Z,19998.78
2023-02-23T12:56:42.033Z,19966.28
2023-02-23T12:59:44.335Z,19952.03
2023-02-23T13:02:25.615Z,19945.94
2023-02-23T13:05:17.296Z,19939.84
2023-02-23T13:08:12.455Z,19913.44
2023-02-23T13:10:55.333Z,19925.63
2023-02-23T13:13:40.359Z,19915.47
2023-02-23T13:16:20.951Z,19917.50
2023-02-23T13:19:05.716Z,19870.75
2023-02-23T13:21:40.462Z,19856.53
2023-02-23T13:24:18.973Z,19911.41
2023-02-23T13:26:56.518Z,19899.19
2023-02-23T13:29:38.851Z,19868.72
2023-02-23T13:32:13.822Z,19899.19
2023-02-23T13:34:46.821Z,19850.41
2023-02-23T13:37:21.387Z,19850.41
2023-02-23T13:40:01.425Z,19858.56
2023-02-23T13:42:42.737Z,19838.22
2023-02-23T13:45:41.931Z,19854.50
2023-02-23T13:48:30.417Z,19838.22
2023-02-23T13:51:09.499Z,19813.84
2023-02-23T13:53:44.205Z,19856.53
2023-02-23T13:56:20.021Z,19830.09
2023-02-23T13:58:53.336Z,19817.91
2023-02-23T14:01:27.568Z,19824.00
2023-02-23T14:04:00.662Z,19872.78
2023-02-23T14:06:34.274Z,19817.91
2023-02-23T14:09:12.443Z,19842.28
2023-02-23T14:11:48.598Z,19860.59
2023-02-23T14:14:45.938Z,19874.81
2023-02-23T14:17:42.358Z,19819.94
2023-02-23T14:20:29.839Z,19832.13
2023-02-23T14:23:37.626Z,19848.38
2023-02-23T14:26:36.084Z,19783.34
2023-02-23T14:29:29.235Z,19805.72
2023-02-23T14:32:24.987Z,19832.13
2023-02-23T14:34:56.942Z,19783.34
2023-02-23T14:37:35.161Z,19783.34
2023-02-23T14:40:14.883Z,19789.44
2023-02-23T14:42:50.191Z,19805.72
2023-02-23T14:45:27.313Z,19783.34
2023-02-23T14:48:02.558Z,19803.69
2023-02-23T14:50:34.484Z,19797.59
2023-02-23T14:53:04.958Z,19750.84
2023-02-23T14:55:36.684Z,19761.00
2023-02-23T14:58:22.136Z,19801.66
2023-02-23T15:00:51.977Z,19758.97
2023-02-23T15:03:20.818Z,19761.00
2023-02-23T15:05:54.119Z,19748.81
2023-02-23T15:08:25.246Z,19756.94
2023-02-23T15:11:04.529Z,19671.56
2023-02-23T15:13:39.786Z,19687.84
2023-02-23T15:16:14.256Z,19681.75
2023-02-23T15:18:45.740Z,19679.72
2023-02-23T15:21:18.747Z,19683.78
2023-02-23T15:23:50.576Z,19612.63
2023-02-23T15:26:31.808Z,19610.59
2023-02-23T15:29:13.443Z,19614.66
2023-02-23T15:31:50.134Z,19606.53
2023-02-23T15:34:21.542Z,19608.56
2023-02-23T15:36:55.475Z,19600.44
2023-02-23T15:39:37.352Z,19565.91
2023-02-23T15:42:09.442Z,19602.47
2023-02-23T15:44:44.319Z,19598.41
2023-02-23T15:47:28.373Z,19596.38
2023-02-23T15:50:14.288Z,19557.78
2023-02-23T15:52:51.030Z,19529.31
2023-02-23T15:55:26.946Z,19515.09
2023-02-23T15:57:59.780Z,19529.31
2023-02-23T16:00:34.824Z,19517.13
2023-02-23T16:03:07.398Z,19539.47
2023-02-23T16:05:46.605Z,19523.22
2023-02-23T16:08:23.745Z,19470.38
2023-02-23T16:10:59.173Z,19476.47
2023-02-23T16:13:29.101Z,19482.56
2023-02-23T16:15:57.911Z,19478.50
2023-02-23T16:18:39.500Z,19466.31
2023-02-23T16:21:12.918Z,19468.34
2023-02-23T16:23:45.547Z,19474.44
2023-02-23T16:26:24.181Z,19446.00
2023-02-23T16:28:59.661Z,19417.56
2023-02-23T16:31:44.022Z,19433.81
2023-02-23T16:34:26.383Z,19423.66
2023-02-23T16:36:59.853Z,19456.16
2023-02-23T16:39:31.699Z,19443.97
2023-02-23T16:42:00.935Z,19431.78
2023-02-23T16:44:42.887Z,19407.38
2023-02-23T16:47:36.195Z,19413.47
2023-02-23T16:50:19.753Z,19411.44
2023-02-23T16:52:52.862Z,19399.25
2023-02-23T16:55:25.625Z,19419.59
2023-02-23T16:57:57.642Z,19403.31
2023-02-23T17:00:31.290Z,19389.09
2023-02-23T17:03:01.455Z,19413.47
2023-02-23T17:05:30.525Z,19441.94
2023-02-23T17:07:59.287Z,19389.09
2023-02-23T17:10:32.246Z,19372.84
2023-02-23T17:13:04.961Z,19383.00
2023-02-23T17:15:38.815Z,19387.06
2023-02-23T17:18:07.438Z,19380.97
2023-02-23T17:20:35.716Z,19368.78
2023-02-23T17:23:04.673Z,19374.88
2023-02-23T17:25:33.895Z,19372.84
2023-02-23T17:28:03.560Z,19391.13
2023-02-23T17:30:35.323Z,19366.75
2023-02-23T17:33:04.798Z,19346.44
2023-02-23T17:35:37.245Z,19370.81
2023-02-23T17:38:07.552Z,19387.06
2023-02-23T17:40:37.858Z,19350.50
2023-02-23T17:43:08.535Z,19354.56
2023-02-23T17:45:38.274Z,19336.25
2023-02-23T17:48:07.058Z,19362.69
2023-02-23T17:50:35.209Z,19376.91
2023-02-23T17:53:03.319Z,19389.09
2023-02-23T17:55:31.420Z,19378.94
2023-02-23T17:57:59.540Z,19348.47
2023-02-23T18:00:28.543Z,19330.16
2023-02-23T18:02:58.087Z,19378.94
2023-02-23T18:05:26.185Z,19340.31
2023-02-23T18:07:54.349Z,19370.81
2023-02-23T18:10:25.256Z,19346.44
2023-02-23T18:12:53.598Z,19366.75
2023-02-23T18:15:22.425Z,19366.75
2023-02-23T18:17:54.437Z,19344.41
2023-02-23T18:20:24.040Z,19380.97
2023-02-23T18:22:52.138Z,19366.75
2023-02-23T18:25:27.355Z,19332.19
2023-02-23T18:27:58.529Z,19378.94
2023-02-23T18:30:27.741Z,19350.50
2023-02-23T18:33:00.665Z,19346.44
2023-02-23T18:35:35.923Z,19330.16
2023-02-23T18:38:04.244Z,19383.00
2023-02-23T18:40:32.461Z,19370.81
2023-02-23T18:43:00.581Z,19346.44
2023-02-23T18:45:29.955Z,19356.59
2023-02-23T18:47:58.308Z,19336.25
2023-02-23T18:50:27.546Z,19389.09
2023-02-23T18:52:58.847Z,19362.69
2023-02-23T18:55:26.987Z,19330.16
2023-02-23T18:57:55.097Z,19328.13
2023-02-23T19:00:24.509Z,19299.69
2023-02-23T19:02:53.676Z,19305.78
2023-02-23T19:05:22.795Z,19320.00
2023-02-23T19:07:51.126Z,19313.91
2023-02-23T19:10:20.781Z,19326.09
2023-02-23T19:12:48.895Z,19295.63
2023-02-23T19:15:17.286Z,19299.69
2023-02-23T19:17:47.212Z,19299.69
2023-02-23T19:20:15.936Z,19293.59
2023-02-23T19:22:45.412Z,19257.00
2023-02-23T19:25:14.988Z,19273.28
2023-02-23T19:27:44.864Z,19259.03
2023-02-23T19:30:14.851Z,19259.03
2023-02-23T19:32:44.276Z,19250.91
2023-02-23T19:35:17.446Z,19254.97
2023-02-23T19:37:50.658Z,19271.25
2023-02-23T19:40:22.637Z,19242.78
2023-02-23T19:42:53.113Z,19240.75
2023-02-23T19:45:21.820Z,19242.78
2023-02-23T19:47:53.438Z,19242.78
2023-02-23T19:50:22.647Z,19246.84
2023-02-23T19:52:51.044Z,19238.72
2023-02-23T19:55:20.278Z,19216.38
2023-02-23T19:57:48.540Z,19206.22
2023-02-23T20:00:19.290Z,19216.38
2023-02-23T20:02:54.693Z,19204.19
2023-02-23T20:05:25.587Z,19224.50
2023-02-23T20:07:54.539Z,19236.69
2023-02-23T20:10:25.738Z,19238.72
2023-02-23T20:12:54.188Z,19204.19
2023-02-23T20:15:23.854Z,19206.22
2023-02-23T20:17:52.253Z,19204.19
2023-02-23T20:20:25.383Z,19261.06
2023-02-23T20:22:54.975Z,19232.63
2023-02-23T20:25:23.820Z,19194.03
2023-02-23T20:27:52.061Z,19206.22
2023-02-23T20:30:21.044Z,19250.91
2023-02-23T20:32:50.686Z,19208.25
2023-02-23T20:35:20.522Z,19220.44
2023-02-23T20:37:48.699Z,19183.84
2023-02-23T20:40:19.648Z,19208.25
2023-02-23T20:42:50.695Z,19183.84
2023-02-23T20:45:22.594Z,19173.69
2023-02-23T20:47:53.420Z,19169.63
2023-02-23T20:50:25.365Z,19179.78
2023-02-23T20:52:53.480Z,19187.91
2023-02-23T20:55:26.285Z,19198.09
2023-02-23T20:57:55.560Z,19204.19
2023-02-23T21:00:32.331Z,19196.06
2023-02-23T21:03:05.013Z,19167.59
2023-02-23T21:05:40.240Z,19208.25
2023-02-23T21:08:10.637Z,19212.31
2023-02-23T21:10:40.448Z,19210.28
2023-02-23T21:13:11.338Z,19206.22
2023-02-23T21:15:41.473Z,19177.75
2023-02-23T21:18:11.616Z,19240.75
2023-02-23T21:20:40.951Z,19198.09
2023-02-23T21:23:09.134Z,19198.09
2023-02-23T21:25:38.405Z,19192.00
2023-02-23T21:28:07.136Z,19175.72
2023-02-23T21:30:35.250Z,19177.75
2023-02-23T21:33:03.799Z,19151.34
2023-02-23T21:35:35.094Z,19208.25
2023-02-23T21:38:03.207Z,19226.53
2023-02-23T21:40:31.600Z,19206.22
2023-02-23T21:43:01.130Z,19179.78
2023-02-23T21:45:29.319Z,19185.88
2023-02-23T21:47:57.415Z,19165.56
2023-02-23T21:50:25.558Z,19165.56
2023-02-23T21:52:58.111Z,19165.56
2023-02-23T21:55:26.288Z,19153.38
2023-02-23T21:57:54.827Z,19181.81
2023-02-23T22:00:24.053Z,19175.72
2023-02-23T22:02:52.879Z,19167.59
2023-02-23T22:05:21.662Z,19177.75
2023-02-23T22:07:51.893Z,19145.25
2023-02-23T22:10:24.241Z,19167.59
2023-02-23T22:12:56.786Z,19155.41
2023-02-23T22:15:28.142Z,19151.34
2023-02-23T22:17:57.090Z,19135.09
2023-02-23T22:20:26.210Z,19151.34
2023-02-23T22:22:54.411Z,19157.44
2023-02-23T22:25:25.953Z,19139.16
2023-02-23T22:27:54.102Z,19157.44
2023-02-23T22:30:22.968Z,19143.22
2023-02-23T22:32:51.525Z,19141.19
2023-02-23T22:35:19.979Z,19104.59
2023-02-23T22:37:48.676Z,19135.09
2023-02-23T22:40:17.182Z,19122.91
2023-02-23T22:42:50.912Z,19076.16
2023-02-23T22:45:20.276Z,19098.50
2023-02-23T22:47:48.408Z,19070.06
2023-02-23T22:50:18.991Z,19112.75
2023-02-23T22:52:47.660Z,19104.59
2023-02-23T22:55:16.076Z,19082.25
2023-02-23T22:57:44.209Z,19106.66
2023-02-23T23:00:19.265Z,19082.25
2023-02-23T23:02:47.374Z,19074.13
2023-02-23T23:05:16.270Z,19074.13
2023-02-23T23:07:46.676Z,19066.00
2023-02-23T23:10:16.275Z,19055.84
2023-02-23T23:12:44.925Z,19070.06
2023-02-23T23:15:17.235Z,19061.94
2023-02-23T23:17:48.364Z,19047.72
2023-02-23T23:20:22.712Z,19086.31
2023-02-23T23:22:50.820Z,19005.03
2023-02-23T23:25:22.748Z,19080.22
2023-02-23T23:27:55.440Z,19025.38
2023-02-23T23:30:29.072Z,19066.00
2023-02-23T23:32:57.648Z,19021.31
2023-02-23T23:35:26.610Z,19037.56
2023-02-23T23:37:54.668Z,19057.88
2023-02-23T23:40:24.875Z,19074.13
2023-02-23T23:42:55.738Z,19057.88
2023-02-23T23:45:25.630Z,19047.72
2023-02-23T23:47:53.995Z,19045.69
2023-02-23T23:50:26.538Z,19053.81
2023-02-23T23:52:55.359Z,19086.31
2023-02-23T23:55:23.566Z,19070.06
2023-02-23T23:57:52.098Z,19047.72
